Time;durP1;ratioP1;P1;durP2;ratioP2;P2;SDS_P1;SDS_P2;PMS_P1;PMS_P2;Temp;Humidity;BMP_temperature;BMP_pressure;BME280_temperature;BME280_humidity;BME280_pressure;Samples;Min_cycle;Max_cycle;Signal;HPM_P1;HPM_P2
2022/06/22 00:01:54;;;;;;;32.35;13.30;;;22.10;74.50;;;;;;5006791;28;20412;-74
2022/06/22 00:04:33;;;;;;;38.50;17.52;;;22.00;74.60;;;;;;5008580;28;20033;-73
2022/06/22 00:07:12;;;;;;;31.50;16.17;;;22.00;74.60;;;;;;5008946;28;20093;-74
2022/06/22 00:09:40;;;;;;;31.50;16.83;;;22.00;74.50;;;;;;4991618;28;20022;-73
2022/06/22 00:12:17;;;;;;;38.28;15.20;;;21.90;74.40;;;;;;5007319;28;20033;-73
2022/06/22 00:14:46;;;;;;;38.50;15.55;;;21.90;74.30;;;;;;5008599;28;20116;-74
2022/06/22 00:17:29;;;;;;;34.45;15.35;;;21.90;74.20;;;;;;5006287;28;20084;-74
2022/06/22 00:20:19;;;;;;;32.20;14.40;;;21.80;74.10;;;;;;5006349;28;20405;-74
2022/06/22 00:22:51;;;;;;;22.55;10.43;;;21.80;74.20;;;;;;5010308;28;20052;-73
2022/06/22 00:25:22;;;;;;;22.75;9.63;;;21.80;74.20;;;;;;5005475;28;20103;-73
2022/06/22 00:27:48;;;;;;;22.63;9.30;;;21.70;74.40;;;;;;5006332;28;20033;-74
2022/06/22 00:30:44;;;;;;;23.80;9.35;;;21.70;74.50;;;;;;5010072;28;20038;-73
2022/06/22 00:33:19;;;;;;;25.20;12.43;;;21.70;74.80;;;;;;5007290;28;20477;-73
2022/06/22 00:35:51;;;;;;;28.25;12.43;;;21.70;74.80;;;;;;5010240;28;20034;-73
2022/06/22 00:38:32;;;;;;;32.28;12.32;;;21.70;74.70;;;;;;5007842;28;20053;-73
2022/06/22 00:41:20;;;;;;;23.52;10.88;;;21.60;74.70;;;;;;5006378;28;20478;-73
2022/06/22 00:43:48;;;;;;;19.42;10.07;;;21.60;74.70;;;;;;5009673;28;20026;-74
2022/06/22 00:46:19;;;;;;;31.95;11.27;;;21.60;74.80;;;;;;5010059;28;20180;-73
2022/06/22 00:48:52;;;;;;;31.02;11.15;;;21.60;74.80;;;;;;5005604;28;20109;-74
2022/06/22 00:51:22;;;;;;;27.92;10.88;;;21.50;74.50;;;;;;5009724;28;20513;-74
2022/06/22 00:53:55;;;;;;;37.97;11.85;;;21.40;74.40;;;;;;5009881;28;20025;-73
2022/06/22 00:56:47;;;;;;;31.35;11.05;;;21.40;74.50;;;;;;5005872;28;20046;-73
2022/06/22 00:59:29;;;;;;;26.38;11.23;;;21.30;74.50;;;;;;5009382;28;20049;-74
2022/06/22 01:02:08;;;;;;;26.42;9.63;;;21.30;74.70;;;;;;5009496;28;20041;-73
2022/06/22 01:05:05;;;;;;;18.42;9.50;;;21.20;74.70;;;;;;5005360;28;20578;-73
2022/06/22 01:07:34;;;;;;;19.83;9.18;;;21.20;75.10;;;;;;5001008;28;20092;-73
2022/06/22 01:10:12;;;;;;;16.98;9.35;;;21.20;75.20;;;;;;5008932;28;20400;-73
2022/06/22 01:13:18;;;;;;;16.30;8.65;;;21.30;75.20;;;;;;4991106;28;20030;-74
2022/06/22 01:15:52;;;;;;;18.05;9.02;;;21.30;75.30;;;;;;4994329;28;21081;-74
2022/06/22 01:18:32;;;;;;;24.38;9.35;;;21.30;75.20;;;;;;5008251;28;20184;-73
2022/06/22 01:21:16;;;;;;;19.60;8.45;;;21.30;76.20;;;;;;5009304;28;20061;-73
2022/06/22 01:23:50;;;;;;;20.77;8.93;;;21.30;75.20;;;;;;5006566;28;20096;-73
2022/06/22 01:26:42;;;;;;;23.50;9.05;;;21.30;75.40;;;;;;5007511;28;20033;-74
2022/06/22 01:29:20;;;;;;;21.67;9.32;;;21.30;75.60;;;;;;5008489;28;20163;-74
2022/06/22 01:31:54;;;;;;;24.70;9.63;;;21.30;75.70;;;;;;5005117;28;20032;-73
2022/06/22 01:34:20;;;;;;;20.77;8.75;;;21.30;75.80;;;;;;5009025;28;20400;-73
2022/06/22 01:36:46;;;;;;;21.88;9.15;;;21.30;75.80;;;;;;5006794;28;20018;-76
2022/06/22 01:39:14;;;;;;;23.42;8.95;;;21.30;75.80;;;;;;5008978;28;20091;-73
2022/06/22 01:41:50;;;;;;;26.88;9.45;;;21.30;75.70;;;;;;5006007;28;20025;-73
2022/06/22 01:44:37;;;;;;;26.30;9.30;;;21.20;75.70;;;;;;5004618;28;20040;-73
2022/06/22 01:47:33;;;;;;;24.27;8.93;;;21.20;75.80;;;;;;5004804;28;20054;-74
2022/06/22 01:50:02;;;;;;;22.05;8.45;;;21.20;75.90;;;;;;5004944;28;20030;-73
2022/06/22 01:52:46;;;;;;;22.42;8.52;;;21.10;75.80;;;;;;5009406;28;20061;-74
2022/06/22 01:55:37;;;;;;;27.70;8.80;;;21.10;75.70;;;;;;5010343;28;20497;-73
2022/06/22 01:58:08;;;;;;;32.30;9.65;;;21.00;75.60;;;;;;4997272;28;20583;-73
2022/06/22 02:00:34;;;;;;;28.58;8.88;;;21.00;75.70;;;;;;5010692;28;20034;-74
2022/06/22 02:03:12;;;;;;;29.65;8.60;;;20.90;75.80;;;;;;5011349;28;20041;-73
2022/06/22 02:05:42;;;;;;;27.95;8.93;;;20.90;75.70;;;;;;5006967;28;20041;-73
2022/06/22 02:08:22;;;;;;;19.33;8.30;;;20.90;75.60;;;;;;5008564;28;20026;-73
2022/06/22 02:11:24;;;;;;;21.88;8.02;;;20.80;75.40;;;;;;5010350;28;20045;-73
2022/06/22 02:13:59;;;;;;;19.25;8.43;;;20.80;75.40;;;;;;4986081;28;20046;-73
2022/06/22 02:16:29;;;;;;;18.15;8.48;;;20.80;75.70;;;;;;5008855;28;20026;-73
2022/06/22 02:18:58;;;;;;;16.27;9.00;;;20.70;75.80;;;;;;5008467;28;20110;-74
2022/06/22 02:21:29;;;;;;;17.00;8.30;;;20.70;75.90;;;;;;5010259;28;20504;-73
2022/06/22 02:23:55;;;;;;;;;;;20.70;76.00;;;;;;5010197;28;20045;-73
2022/06/22 02:26:48;;;;;;;23.48;8.57;;;20.70;76.10;;;;;;5008530;28;20008;-76
2022/06/22 02:29:17;;;;;;;20.17;8.20;;;20.60;76.00;;;;;;4996358;28;20034;-73
2022/06/22 02:31:43;;;;;;;17.73;8.93;;;20.60;75.70;;;;;;5008274;28;20033;-73
2022/06/22 02:34:10;;;;;;;19.00;9.32;;;20.60;75.80;;;;;;5008265;28;20062;-73
2022/06/22 02:36:41;;;;;;;15.20;8.55;;;20.60;76.10;;;;;;5008960;28;20595;-73
2022/06/22 02:39:09;;;;;;;;;;;20.60;76.20;;;;;;5005938;28;20040;-73
2022/06/22 02:44:34;;;;;;;17.88;9.00;;;20.60;76.00;;;;;;4979829;28;20130;-73
2022/06/22 02:47:09;;;;;;;18.02;8.93;;;20.50;75.40;;;;;;4985820;28;20054;-73
2022/06/22 02:49:41;;;;;;;16.50;8.63;;;20.50;76.50;;;;;;4987934;28;20054;-73
2022/06/22 02:52:10;;;;;;;16.75;8.57;;;20.50;77.00;;;;;;4990054;28;20031;-73
2022/06/22 02:54:53;;;;;;;18.27;9.40;;;20.50;77.40;;;;;;4989699;28;20108;-73
2022/06/22 02:57:47;;;;;;;22.83;9.00;;;20.50;77.50;;;;;;4987448;28;20497;-73
2022/06/22 03:00:15;;;;;;;23.10;9.48;;;20.60;77.80;;;;;;4986825;28;20026;-73
2022/06/22 03:02:42;;;;;;;17.77;8.73;;;20.60;77.80;;;;;;4990449;28;20043;-73
2022/06/22 03:05:09;;;;;;;20.42;9.32;;;20.60;78.00;;;;;;4989608;28;20038;-73
2022/06/22 03:07:39;;;;;;;19.33;9.40;;;20.60;78.30;;;;;;4989469;28;20030;-73
2022/06/22 03:10:07;;;;;;;21.80;10.02;;;20.60;78.40;;;;;;4989463;28;20026;-74
2022/06/22 03:12:33;;;;;;;20.98;9.63;;;20.60;78.40;;;;;;4973454;28;20112;-73
2022/06/22 03:15:03;;;;;;;17.95;9.10;;;20.60;78.60;;;;;;4990475;28;20485;-74
2022/06/22 03:17:34;;;;;;;17.55;9.30;;;20.60;78.70;;;;;;4988891;28;20060;-73
2022/06/22 03:20:06;;;;;;;20.20;8.80;;;20.60;78.70;;;;;;4989554;28;20085;-73
2022/06/22 03:22:39;;;;;;;21.92;8.90;;;20.60;78.70;;;;;;4998784;28;20505;-72
2022/06/22 03:25:30;;;;;;;28.00;9.65;;;20.60;78.60;;;;;;5007811;28;20042;-73
2022/06/22 03:28:11;;;;;;;22.02;9.82;;;20.60;78.60;;;;;;4994911;28;20077;-73
2022/06/22 03:30:51;;;;;;;19.50;9.15;;;20.50;78.70;;;;;;5011376;28;20389;-74
2022/06/22 03:33:26;;;;;;;20.17;9.38;;;20.50;79.00;;;;;;5008670;28;20025;-74
2022/06/22 03:35:56;;;;;;;24.45;9.35;;;20.50;79.10;;;;;;5011913;28;20405;-73
2022/06/22 03:38:28;;;;;;;20.40;9.35;;;20.50;79.10;;;;;;5007935;28;20022;-73
2022/06/22 03:41:05;;;;;;;17.40;9.35;;;20.50;79.20;;;;;;5010701;28;20120;-73
2022/06/22 03:43:52;;;;;;;15.60;8.93;;;20.50;79.30;;;;;;5011193;28;20507;-73
2022/06/22 03:46:30;;;;;;;17.40;9.27;;;20.50;79.40;;;;;;5007214;28;20049;-73
2022/06/22 03:49:06;;;;;;;16.45;8.38;;;20.50;79.60;;;;;;5011198;28;20030;-73
2022/06/22 03:51:39;;;;;;;16.73;8.90;;;20.50;79.50;;;;;;5010908;28;20034;-73
2022/06/22 03:54:14;;;;;;;14.00;9.32;;;20.50;79.50;;;;;;5007296;28;20038;-73
2022/06/22 03:56:50;;;;;;;23.73;9.20;;;20.50;79.60;;;;;;5011498;28;20037;-73
2022/06/22 03:59:16;;;;;;;20.02;9.32;;;20.50;79.60;;;;;;5008658;28;20022;-73
2022/06/22 04:01:42;;;;;;;14.60;9.68;;;20.50;79.60;;;;;;5008099;28;20485;-73
2022/06/22 04:04:09;;;;;;;21.65;8.80;;;20.50;79.70;;;;;;5009985;28;20038;-73
2022/06/22 04:06:46;;;;;;;18.13;9.40;;;20.50;79.90;;;;;;5008267;28;20037;-73
2022/06/22 04:09:18;;;;;;;21.15;9.38;;;20.50;80.00;;;;;;5007491;28;20073;-73
2022/06/22 04:11:58;;;;;;;24.95;8.80;;;20.50;80.00;;;;;;5011083;28;20030;-73
2022/06/22 04:14:28;;;;;;;26.60;9.73;;;20.50;79.90;;;;;;5006425;28;20053;-76
2022/06/22 04:16:59;;;;;;;43.05;10.57;;;20.50;79.80;;;;;;5009834;28;20030;-75
2022/06/22 04:19:32;;;;;;;33.35;9.98;;;20.50;79.70;;;;;;5006577;28;20400;-73
2022/06/22 04:22:09;;;;;;;32.03;10.52;;;20.50;79.70;;;;;;5006811;28;20046;-73
2022/06/22 04:24:40;;;;;;;22.48;10.02;;;20.50;80.70;;;;;;5006323;28;20736;-73
2022/06/22 04:27:10;;;;;;;21.02;9.63;;;20.50;79.70;;;;;;5007575;28;20034;-73
2022/06/22 04:29:45;;;;;;;20.30;10.18;;;20.50;79.80;;;;;;5008909;28;20088;-73
2022/06/22 04:32:24;;;;;;;22.90;10.15;;;20.50;79.90;;;;;;5006135;28;20567;-73
2022/06/22 04:34:53;;;;;;;27.15;12.15;;;20.50;80.00;;;;;;5006423;28;20492;-75
2022/06/22 04:37:41;;;;;;;33.90;12.23;;;20.50;79.90;;;;;;5008007;28;20444;-75
2022/06/22 04:40:16;;;;;;;30.60;12.88;;;20.50;79.90;;;;;;5009991;28;20034;-73
2022/06/22 04:42:42;;;;;;;31.20;14.05;;;20.50;79.70;;;;;;4995348;28;20049;-73
2022/06/22 04:45:24;;;;;;;30.45;14.02;;;20.50;79.70;;;;;;5010230;28;20449;-73
2022/06/22 04:47:49;;;;;;;28.77;12.50;;;20.60;80.00;;;;;;5008425;28;20045;-73
2022/06/22 04:50:15;;;;;;;23.95;12.85;;;20.60;80.00;;;;;;5009811;28;20041;-71
2022/06/22 04:52:47;;;;;;;31.88;12.32;;;20.60;80.00;;;;;;5009433;28;20036;-73
2022/06/22 04:55:16;;;;;;;29.88;12.32;;;20.60;80.10;;;;;;5009529;28;20041;-72
2022/06/22 04:57:45;;;;;;;27.15;11.65;;;20.60;80.20;;;;;;5008770;28;20064;-72
2022/06/22 05:00:20;;;;;;;30.70;11.43;;;20.60;80.50;;;;;;5009691;28;20033;-73
2022/06/22 05:02:50;;;;;;;27.58;11.57;;;20.60;80.60;;;;;;5010641;28;20026;-74
2022/06/22 05:05:22;;;;;;;30.98;11.85;;;20.60;80.60;;;;;;5005653;28;20041;-74
2022/06/22 05:07:52;;;;;;;22.85;10.73;;;20.60;80.50;;;;;;5006672;28;20068;-74
2022/06/22 05:10:28;;;;;;;29.05;11.32;;;20.70;80.50;;;;;;5004792;28;20483;-74
2022/06/22 05:12:58;;;;;;;28.08;11.70;;;20.70;80.50;;;;;;4998946;28;20041;-73
2022/06/22 05:15:31;;;;;;;32.95;11.77;;;20.70;80.40;;;;;;5006475;28;20025;-73
2022/06/22 05:17:59;;;;;;;28.70;11.65;;;20.80;80.50;;;;;;5009877;28;20033;-73
2022/06/22 05:20:34;;;;;;;26.30;11.30;;;20.80;80.50;;;;;;5005738;28;20032;-73
2022/06/22 05:23:01;;;;;;;28.70;11.02;;;20.80;80.70;;;;;;5008873;28;20038;-73
2022/06/22 05:25:29;;;;;;;23.30;11.00;;;20.80;80.80;;;;;;5007611;28;20045;-74
2022/06/22 05:28:10;;;;;;;30.38;12.30;;;20.80;81.00;;;;;;5005370;28;20014;-74
2022/06/22 05:30:46;;;;;;;32.65;12.05;;;20.80;81.10;;;;;;5006831;28;20489;-74
2022/06/22 05:33:15;;;;;;;29.42;13.07;;;20.80;81.20;;;;;;5001641;28;20032;-74
2022/06/22 05:35:48;;;;;;;31.73;13.23;;;20.80;81.30;;;;;;5005475;28;20465;-72
2022/06/22 05:38:16;;;;;;;32.10;14.30;;;20.80;81.40;;;;;;5004415;28;20460;-73
2022/06/22 05:40:44;;;;;;;31.52;14.23;;;20.80;81.30;;;;;;5004827;28;20096;-73
2022/06/22 05:43:10;;;;;;;31.25;12.60;;;20.80;81.30;;;;;;5005178;28;20513;-73
2022/06/22 05:45:44;;;;;;;32.75;12.90;;;20.90;80.90;;;;;;5009082;28;20058;-73
2022/06/22 05:48:17;;;;;;;30.05;12.25;;;20.90;80.80;;;;;;5006337;28;20029;-73
2022/06/22 05:50:49;;;;;;;25.25;11.57;;;21.00;80.80;;;;;;5009523;28;20034;-76
2022/06/22 05:53:23;;;;;;;26.52;12.02;;;21.00;80.90;;;;;;5003605;28;20109;-73
2022/06/22 05:55:57;;;;;;;31.58;12.05;;;21.00;81.00;;;;;;4999405;28;20095;-73
2022/06/22 05:58:28;;;;;;;27.23;12.38;;;21.00;80.80;;;;;;5005583;28;20739;-74
2022/06/22 06:00:57;;;;;;;35.05;13.35;;;21.10;81.00;;;;;;5000316;28;20101;-74
2022/06/22 06:03:48;;;;;;;30.67;12.82;;;21.10;80.90;;;;;;5009377;28;20036;-74
2022/06/22 06:06:16;;;;;;;;;;;21.10;80.90;;;;;;5006154;28;20034;-73
2022/06/22 06:08:45;;;;;;;25.98;12.48;;;21.20;80.90;;;;;;5007108;28;19910;-71
2022/06/22 06:11:20;;;;;;;26.85;11.18;;;21.20;81.00;;;;;;5005963;28;20116;-72
2022/06/22 06:13:58;;;;;;;20.45;10.77;;;21.20;80.90;;;;;;5006982;28;20092;-71
2022/06/22 06:16:29;;;;;;;26.60;12.70;;;21.30;81.70;;;;;;5005378;28;20112;-72
2022/06/22 06:18:56;;;;;;;;;;;21.40;80.70;;;;;;5004917;28;20037;-72
2022/06/22 06:21:25;;;;;;;23.48;10.52;;;21.40;81.70;;;;;;5007501;28;19909;-75
2022/06/22 06:24:18;;;;;;;17.38;10.23;;;21.50;80.80;;;;;;5011014;28;20021;-74
2022/06/22 06:29:43;;;;;;;20.30;10.10;;;21.60;80.60;;;;;;5010627;28;20176;-72
2022/06/22 06:32:34;;;;;;;18.13;10.15;;;21.70;80.40;;;;;;5010425;28;20120;-74
2022/06/22 06:35:21;;;;;;;19.45;10.05;;;21.80;80.30;;;;;;5010467;28;20034;-74
2022/06/22 06:38:08;;;;;;;19.25;10.65;;;21.90;80.40;;;;;;5002675;28;20026;-77
2022/06/22 06:41:01;;;;;;;22.50;10.73;;;21.90;80.60;;;;;;5013129;28;20026;-75
2022/06/22 06:43:36;;;;;;;19.15;9.93;;;22.00;80.60;;;;;;5015761;28;20056;-75
2022/06/22 06:46:24;;;;;;;18.63;10.25;;;22.10;80.40;;;;;;5014002;28;20042;-74
2022/06/22 06:49:13;;;;;;;18.33;10.15;;;22.10;79.90;;;;;;5003446;28;20097;-74
2022/06/22 06:51:45;;;;;;;19.88;10.43;;;22.20;79.50;;;;;;4999340;28;20054;-74
2022/06/22 06:54:35;;;;;;;15.18;9.00;;;22.30;79.30;;;;;;5013447;28;20030;-74
2022/06/22 06:57:09;;;;;;;12.27;7.50;;;22.40;79.00;;;;;;5015834;28;20026;-74
2022/06/22 06:59:35;;;;;;;14.02;7.60;;;22.50;78.20;;;;;;5013353;28;20587;-74
2022/06/22 07:02:11;;;;;;;13.13;7.60;;;22.50;77.70;;;;;;5010509;28;20037;-73
2022/06/22 07:04:36;;;;;;;11.88;7.07;;;22.60;76.80;;;;;;5012430;28;20043;-73
2022/06/22 07:07:19;;;;;;;14.52;7.30;;;22.70;76.10;;;;;;5011254;28;20030;-74
2022/06/22 07:09:49;;;;;;;13.30;6.90;;;22.80;75.20;;;;;;5005581;28;20029;-76
2022/06/22 07:12:23;;;;;;;14.68;7.32;;;23.00;73.90;;;;;;5011827;28;20026;-74
2022/06/22 07:14:49;;;;;;;12.20;6.30;;;23.20;72.60;;;;;;5011747;28;20111;-73
2022/06/22 07:17:18;;;;;;;11.35;6.35;;;23.40;71.40;;;;;;5010462;28;20034;-74
2022/06/22 07:19:51;;;;;;;14.27;6.05;;;23.40;71.00;;;;;;5007537;28;20488;-74
2022/06/22 07:22:31;;;;;;;10.45;6.05;;;23.30;70.60;;;;;;5008008;28;20029;-74
2022/06/22 07:25:18;;;;;;;14.85;6.15;;;23.30;69.80;;;;;;5007750;28;20046;-74
2022/06/22 07:28:03;;;;;;;10.25;5.60;;;23.20;69.70;;;;;;4995140;28;20125;-75
2022/06/22 07:30:37;;;;;;;16.60;5.82;;;23.30;69.00;;;;;;5008206;28;20120;-74
2022/06/22 07:33:29;;;;;;;11.60;6.00;;;23.30;68.10;;;;;;5012179;28;20045;-74
2022/06/22 07:36:12;;;;;;;12.93;6.38;;;23.40;67.40;;;;;;5010808;28;20033;-75
2022/06/22 07:39:00;;;;;;;9.63;5.95;;;23.50;66.90;;;;;;5011074;28;20112;-74
2022/06/22 07:41:29;;;;;;;11.30;6.03;;;23.60;66.90;;;;;;5011410;28;20385;-75
2022/06/22 07:44:30;;;;;;;15.25;5.90;;;24.00;65.20;;;;;;5007578;28;20404;-75
2022/06/22 07:47:05;;;;;;;15.40;5.82;;;24.00;65.20;;;;;;4969594;28;20082;-74
2022/06/22 07:49:33;;;;;;;9.02;6.10;;;23.90;65.10;;;;;;4969921;28;20035;-75
2022/06/22 07:52:07;;;;;;;12.57;5.18;;;24.00;64.50;;;;;;4957125;28;20641;-75
2022/06/22 07:54:53;;;;;;;12.57;6.10;;;24.20;63.60;;;;;;4969679;28;20790;-75
2022/06/22 07:57:42;;;;;;;15.52;6.38;;;24.40;62.90;;;;;;4968815;28;20054;-74
2022/06/22 08:00:17;;;;;;;10.35;6.10;;;24.50;63.00;;;;;;4966281;28;20039;-75
2022/06/22 08:02:55;;;;;;;9.48;5.97;;;24.80;62.50;;;;;;4969495;28;20039;-75
2022/06/22 08:05:26;;;;;;;14.05;5.90;;;25.30;61.30;;;;;;4968924;28;20114;-75
2022/06/22 08:08:22;;;;;;;12.63;6.15;;;25.70;60.20;;;;;;4969278;28;20030;-75
2022/06/22 08:11:13;;;;;;;12.23;5.65;;;26.10;59.10;;;;;;4969335;28;20034;-74
2022/06/22 08:13:52;;;;;;;9.00;5.22;;;26.40;58.00;;;;;;4969331;28;20090;-75
2022/06/22 08:16:28;;;;;;;11.13;5.50;;;26.80;57.10;;;;;;4969393;28;20047;-75
2022/06/22 08:18:55;;;;;;;12.48;4.88;;;27.10;56.20;;;;;;4969466;28;20045;-75
2022/06/22 08:21:22;;;;;;;15.55;5.38;;;27.30;55.90;;;;;;4969966;28;20035;-75
2022/06/22 08:23:48;;;;;;;11.45;5.07;;;27.50;55.20;;;;;;5008933;28;20520;-75
2022/06/22 08:26:29;;;;;;;11.02;5.22;;;27.80;54.60;;;;;;5006621;28;20065;-75
2022/06/22 08:28:55;;;;;;;8.48;4.70;;;28.00;54.20;;;;;;5009095;28;20041;-75
2022/06/22 08:31:21;;;;;;;13.48;5.13;;;28.20;54.30;;;;;;5005946;28;20492;-75
2022/06/22 08:33:57;;;;;;;13.38;4.68;;;28.40;54.20;;;;;;5005893;28;20030;-74
2022/06/22 08:36:35;;;;;;;11.10;4.78;;;28.50;53.00;;;;;;5010155;28;20456;-74
2022/06/22 08:39:07;;;;;;;10.00;5.10;;;28.60;51.90;;;;;;5011008;28;20053;-74
2022/06/22 08:41:51;;;;;;;13.30;5.03;;;28.70;50.10;;;;;;5009722;28;20033;-75
2022/06/22 08:44:58;;;;;;;11.23;5.25;;;28.80;49.60;;;;;;5004028;28;20412;-74
2022/06/22 08:48:01;;;;;;;11.02;5.43;;;28.90;48.90;;;;;;5003390;28;20050;-74
2022/06/22 08:51:21;;;;;;;11.85;5.40;;;28.60;49.40;;;;;;5005195;28;20389;-75
2022/06/22 08:54:26;;;;;;;26.13;5.53;;;28.30;50.20;;;;;;4921276;29;20040;-75
2022/06/22 08:57:08;;;;;;;13.52;5.30;;;27.90;51.00;;;;;;4926254;29;20027;-75
2022/06/22 08:59:50;;;;;;;11.95;5.35;;;27.80;51.20;;;;;;4929276;29;20414;-75
2022/06/22 09:02:52;;;;;;;11.32;5.10;;;27.80;51.40;;;;;;4902656;29;20044;-75
2022/06/22 09:05:24;;;;;;;12.02;5.18;;;27.80;50.70;;;;;;4927873;29;20047;-76
2022/06/22 09:08:19;;;;;;;12.35;5.32;;;27.60;50.80;;;;;;4929861;29;20122;-75
2022/06/22 09:11:12;;;;;;;9.68;5.28;;;27.40;50.70;;;;;;4926295;29;20620;-75
2022/06/22 09:13:47;;;;;;;10.98;5.18;;;27.40;51.00;;;;;;4929597;29;20035;-75
2022/06/22 09:16:41;;;;;;;9.07;5.10;;;27.20;51.60;;;;;;4929658;29;20060;-76
2022/06/22 09:19:40;;;;;;;14.73;5.00;;;27.10;52.50;;;;;;4920916;29;20071;-75
2022/06/22 09:22:35;;;;;;;9.00;5.07;;;27.00;52.30;;;;;;4929552;29;20106;-75
2022/06/22 09:25:25;;;;;;;9.20;5.07;;;27.00;52.40;;;;;;4907772;29;20050;-75
2022/06/22 09:28:03;;;;;;;7.55;4.70;;;26.90;51.10;;;;;;4964824;28;20125;-76
2022/06/22 09:30:52;;;;;;;10.20;5.00;;;27.00;50.30;;;;;;5007042;28;20041;-76
2022/06/22 09:33:51;;;;;;;8.93;4.55;;;27.10;49.00;;;;;;4948575;29;20572;-76
2022/06/22 09:36:48;;;;;;;11.13;4.70;;;27.30;48.20;;;;;;4948752;28;20048;-75
2022/06/22 09:39:47;;;;;;;9.55;4.47;;;27.30;48.40;;;;;;4945647;29;20094;-75
2022/06/22 09:42:37;;;;;;;9.98;4.90;;;27.30;48.80;;;;;;4948738;29;20869;-75
2022/06/22 09:45:26;;;;;;;10.90;4.93;;;27.40;48.90;;;;;;4955888;28;20403;-75
2022/06/22 09:48:18;;;;;;;10.57;4.78;;;27.50;49.00;;;;;;4952874;28;20042;-75
2022/06/22 09:51:14;;;;;;;8.30;4.55;;;27.60;48.90;;;;;;4948181;29;20605;-75
2022/06/22 09:54:01;;;;;;;10.10;5.03;;;27.60;49.00;;;;;;4947300;29;20082;-75
2022/06/22 09:56:36;;;;;;;10.57;4.93;;;27.70;48.90;;;;;;4947392;28;20050;-75
2022/06/22 09:59:19;;;;;;;9.73;4.95;;;27.70;49.10;;;;;;4947446;28;20058;-75
2022/06/22 10:01:53;;;;;;;11.68;5.10;;;28.40;47.30;;;;;;4947528;29;20032;-75
2022/06/22 10:04:46;;;;;;;11.55;5.03;;;28.30;47.70;;;;;;4944233;29;20098;-75
2022/06/22 10:07:30;;;;;;;11.77;5.10;;;28.10;47.70;;;;;;4946710;28;20090;-75
2022/06/22 10:10:24;;;;;;;9.88;4.80;;;28.00;48.00;;;;;;4965028;28;20045;-75
2022/06/22 10:13:28;;;;;;;9.48;4.45;;;28.00;47.80;;;;;;5002338;28;20482;-74
2022/06/22 10:16:19;;;;;;;7.63;4.05;;;28.10;47.50;;;;;;4999111;28;20022;-75
2022/06/22 10:18:59;;;;;;;10.95;4.20;;;28.30;45.40;;;;;;4999083;28;20038;-75
2022/06/22 10:21:52;;;;;;;11.23;4.68;;;29.20;44.60;;;;;;5007190;28;20116;-74
2022/06/22 10:24:26;;;;;;;12.15;4.78;;;30.70;40.90;;;;;;5001278;28;20484;-73
2022/06/22 10:26:52;;;;;;;8.77;4.47;;;31.00;38.50;;;;;;5009118;28;20495;-76
2022/06/22 10:29:57;;;;;;;10.45;4.10;;;31.10;37.10;;;;;;5003761;28;20056;-75
2022/06/22 10:32:26;;;;;;;8.88;4.40;;;31.10;37.70;;;;;;5002933;28;20121;-74
2022/06/22 10:35:04;;;;;;;9.55;4.50;;;32.30;35.60;;;;;;5006936;28;20460;-75
2022/06/22 10:38:14;;;;;;;10.05;4.40;;;32.00;36.60;;;;;;5005955;28;20036;-76
2022/06/22 10:46:50;;;;;;;8.32;3.92;;;36.40;30.20;;;;;;4939723;29;20133;-74
2022/06/22 10:49:31;;;;;;;11.57;3.95;;;37.60;28.80;;;;;;4942264;28;20035;-75
2022/06/22 10:52:45;;;;;;;9.48;4.13;;;37.20;28.70;;;;;;4939198;28;20043;-74
2022/06/22 10:55:50;;;;;;;8.50;3.97;;;36.00;29.80;;;;;;4938519;28;20059;-75
2022/06/22 10:58:24;;;;;;;9.18;3.88;;;35.80;29.70;;;;;;4936837;29;20114;-75
2022/06/22 11:00:55;;;;;;;7.35;4.03;;;35.00;30.90;;;;;;4939388;29;20060;-73
2022/06/22 11:03:46;;;;;;;8.23;4.30;;;34.20;32.40;;;;;;4933033;28;20055;-75
2022/06/22 11:06:36;;;;;;;9.18;4.75;;;33.20;33.90;;;;;;4943547;28;20593;-75
2022/06/22 11:09:26;;;;;;;9.18;3.97;;;32.50;35.00;;;;;;4946135;28;20054;-76
2022/06/22 11:11:57;;;;;;;8.55;3.90;;;33.80;33.40;;;;;;4950071;28;20043;-74
2022/06/22 11:14:23;;;;;;;7.47;3.58;;;34.40;32.80;;;;;;4942504;28;20509;-74
2022/06/22 11:16:55;;;;;;;8.00;3.83;;;35.40;31.10;;;;;;4998753;28;20045;-75
2022/06/22 11:19:44;;;;;;;9.52;3.90;;;34.30;32.40;;;;;;5006028;28;20080;-73
2022/06/22 11:22:35;;;;;;;11.32;3.40;;;33.50;33.80;;;;;;5007575;28;20033;-74
2022/06/22 11:30:48;;;;;;;8.68;3.40;;;32.90;34.90;;;;;;4999215;28;20041;-73
2022/06/22 11:32:00;;;;;;;8.88;3.38;;;32.60;34.90;;;;;;5008532;28;20095;-72
2022/06/22 11:34:35;;;;;;;8.73;3.40;;;33.30;33.90;;;;;;4999567;28;20100;-73
2022/06/22 11:37:16;;;;;;;8.88;4.10;;;32.70;35.10;;;;;;5008248;28;20046;-74
2022/06/22 11:39:44;;;;;;;8.43;3.78;;;32.00;36.50;;;;;;5007723;28;20061;-75
2022/06/22 11:42:19;;;;;;;9.93;3.70;;;31.50;37.60;;;;;;5015568;28;20543;-75
2022/06/22 11:47:48;;;;;;;9.75;3.80;;;31.00;38.50;;;;;;5018235;28;20535;-74
2022/06/22 11:50:41;;;;;;;8.77;3.83;;;30.80;38.60;;;;;;5002943;28;20030;-76
2022/06/22 11:53:07;;;;;;;8.52;4.05;;;30.50;39.30;;;;;;5011630;28;20121;-74
2022/06/22 11:55:40;;;;;;;7.15;3.70;;;30.40;39.90;;;;;;5011278;28;20160;-74
2022/06/22 11:58:35;;;;;;;8.45;3.95;;;30.40;40.20;;;;;;5000458;28;20030;-76
2022/06/22 12:01:34;;;;;;;8.95;3.92;;;30.80;39.40;;;;;;5005959;28;20023;-75
2022/06/22 12:04:12;;;;;;;8.27;4.05;;;30.70;39.30;;;;;;5003934;28;20034;-75
2022/06/22 12:06:56;;;;;;;8.90;4.20;;;30.40;40.70;;;;;;5009552;28;20065;-75
2022/06/22 12:09:34;;;;;;;10.15;4.00;;;30.10;40.30;;;;;;5007561;28;20117;-76
2022/06/22 12:12:27;;;;;;;8.43;4.63;;;29.80;40.90;;;;;;5013554;28;20038;-76
2022/06/22 12:15:10;;;;;;;9.57;4.43;;;29.60;42.10;;;;;;5013383;28;20041;-76
2022/06/22 12:17:48;;;;;;;13.00;4.72;;;29.40;42.40;;;;;;5015193;28;20030;-76
2022/06/22 12:20:45;;;;;;;21.33;4.57;;;29.20;43.00;;;;;;5011112;28;20037;-76
2022/06/22 12:23:29;;;;;;;6.38;3.70;;;29.10;44.20;;;;;;5014796;28;20025;-76
2022/06/22 12:26:18;;;;;;;8.65;3.70;;;28.90;45.90;;;;;;5012039;28;20501;-75
2022/06/22 12:28:59;;;;;;;7.45;3.72;;;28.70;46.30;;;;;;4946440;29;20049;-76
2022/06/22 12:31:39;;;;;;;9.65;3.75;;;28.50;47.00;;;;;;4953016;29;20039;-75
2022/06/22 12:34:18;;;;;;;9.43;3.95;;;28.30;47.60;;;;;;4950951;29;20387;-75
2022/06/22 12:36:51;;;;;;;9.60;4.18;;;28.30;48.30;;;;;;4949729;29;20095;-76
2022/06/22 12:39:26;;;;;;;7.93;3.90;;;28.10;48.60;;;;;;4951380;29;20082;-75
2022/06/22 12:42:13;;;;;;;9.60;4.40;;;28.10;49.00;;;;;;4952958;29;20122;-75
2022/06/22 12:45:02;;;;;;;7.03;3.80;;;28.10;48.40;;;;;;4949918;29;20043;-76
2022/06/22 12:47:34;;;;;;;9.70;4.03;;;28.20;48.90;;;;;;4949909;29;20686;-74
2022/06/22 12:50:27;;;;;;;6.43;4.05;;;28.20;48.90;;;;;;4946584;29;20031;-75
2022/06/22 12:52:59;;;;;;;9.25;3.67;;;28.30;49.30;;;;;;4947965;29;20133;-75
2022/06/22 12:55:31;;;;;;;7.75;3.40;;;28.30;49.10;;;;;;4947258;29;20027;-76
2022/06/22 12:58:08;;;;;;;6.50;3.08;;;28.40;48.90;;;;;;4945416;29;20107;-76
2022/06/22 13:00:34;;;;;;;5.90;2.97;;;28.90;47.60;;;;;;4947726;29;20037;-76
2022/06/22 13:03:02;;;;;;;7.55;2.90;;;28.70;47.80;;;;;;4947815;29;20691;-76
2022/06/22 13:05:34;;;;;;;5.45;3.13;;;28.70;47.90;;;;;;4976583;28;20041;-76
2022/06/22 13:08:08;;;;;;;5.60;2.80;;;28.60;48.60;;;;;;5008073;28;20041;-77
2022/06/22 13:10:42;;;;;;;5.35;2.53;;;28.50;48.00;;;;;;5007032;28;20032;-76
2022/06/22 13:13:22;;;;;;;5.55;2.65;;;28.50;47.50;;;;;;5000535;28;20057;-77
2022/06/22 13:16:00;;;;;;;5.82;2.55;;;28.20;47.10;;;;;;5003187;28;20037;-77
2022/06/22 13:18:42;;;;;;;5.50;3.10;;;28.00;47.90;;;;;;5007188;28;20496;-76
2022/06/22 13:21:13;;;;;;;7.72;3.13;;;27.80;49.10;;;;;;5006110;28;20033;-77
2022/06/22 13:23:47;;;;;;;9.52;2.92;;;27.70;49.90;;;;;;5006271;28;20748;-76
2022/06/22 13:26:22;;;;;;;9.32;3.20;;;27.60;50.40;;;;;;5004932;28;20042;-75
2022/06/22 13:29:13;;;;;;;7.43;2.92;;;27.60;50.80;;;;;;5003350;28;20030;-77
2022/06/22 13:31:42;;;;;;;7.45;3.10;;;27.60;50.60;;;;;;5004126;28;20033;-77
2022/06/22 13:34:31;;;;;;;6.15;2.97;;;27.60;50.40;;;;;;5003653;28;20037;-79
2022/06/22 13:37:23;;;;;;;5.10;2.65;;;27.70;50.30;;;;;;5001083;28;20030;-76
2022/06/22 13:40:31;;;;;;;5.82;2.70;;;27.80;50.00;;;;;;5004265;28;20037;-78
2022/06/22 13:43:18;;;;;;;10.13;3.30;;;27.80;49.90;;;;;;5003176;28;20041;-77
2022/06/22 13:46:03;;;;;;;5.72;2.83;;;27.90;49.20;;;;;;4990490;28;20667;-78
2022/06/22 13:48:36;;;;;;;5.80;3.25;;;27.80;49.40;;;;;;5005935;28;20036;-77
2022/06/22 13:51:40;;;;;;;6.53;3.08;;;27.60;50.40;;;;;;5009377;28;20084;-84
2022/06/22 13:54:31;;;;;;;5.68;2.85;;;27.40;50.70;;;;;;4921662;29;20040;-74
2022/06/22 13:57:22;;;;;;;7.63;3.40;;;27.30;51.60;;;;;;4913822;29;20047;-79